sensor_id;sensor_type;location;lat;lon;timestamp;temperature;humidity
65826;DHT22;52586;-43.152;172.732;2023-11-21T00:01:39;22.00;45.90
65826;DHT22;52586;-43.152;172.732;2023-11-21T00:04:11;22.00;46.00
65826;DHT22;52586;-43.152;172.732;2023-11-21T00:06:43;22.10;46.00
65826;DHT22;52586;-43.152;172.732;2023-11-21T00:09:14;22.10;46.00
65826;DHT22;52586;-43.152;172.732;2023-11-21T00:11:45;22.10;46.00
65826;DHT22;52586;-43.152;172.732;2023-11-21T00:14:16;22.10;46.00
65826;DHT22;52586;-43.152;172.732;2023-11-21T00:16:48;22.10;45.90
65826;DHT22;52586;-43.152;172.732;2023-11-21T00:19:19;22.10;45.90
65826;DHT22;52586;-43.152;172.732;2023-11-21T00:21:50;22.20;45.90
65826;DHT22;52586;-43.152;172.732;2023-11-21T00:24:20;22.20;45.90
65826;DHT22;52586;-43.152;172.732;2023-11-21T00:26:52;22.20;45.90
65826;DHT22;52586;-43.152;172.732;2023-11-21T00:29:23;22.20;45.90
65826;DHT22;52586;-43.152;172.732;2023-11-21T00:31:56;22.20;45.90
65826;DHT22;52586;-43.152;172.732;2023-11-21T00:34:26;22.20;45.80
65826;DHT22;52586;-43.152;172.732;2023-11-21T00:36:57;22.20;45.80
65826;DHT22;52586;-43.152;172.732;2023-11-21T00:39:28;22.30;45.90
65826;DHT22;52586;-43.152;172.732;2023-11-21T00:41:58;22.30;45.90
65826;DHT22;52586;-43.152;172.732;2023-11-21T00:44:29;22.30;45.80
65826;DHT22;52586;-43.152;172.732;2023-11-21T00:47:01;22.40;45.90
65826;DHT22;52586;-43.152;172.732;2023-11-21T00:49:32;22.30;45.80
65826;DHT22;52586;-43.152;172.732;2023-11-21T00:52:03;22.40;45.90
65826;DHT22;52586;-43.152;172.732;2023-11-21T00:54:33;22.40;45.90
65826;DHT22;52586;-43.152;172.732;2023-11-21T00:57:04;22.40;45.90
65826;DHT22;52586;-43.152;172.732;2023-11-21T00:59:36;22.40;45.90
65826;DHT22;52586;-43.152;172.732;2023-11-21T01:02:08;22.50;45.90
65826;DHT22;52586;-43.152;172.732;2023-11-21T01:04:39;22.40;45.90
65826;DHT22;52586;-43.152;172.732;2023-11-21T01:07:11;22.50;45.90
65826;DHT22;52586;-43.152;172.732;2023-11-21T01:09:42;22.50;45.90
65826;DHT22;52586;-43.152;172.732;2023-11-21T01:12:12;22.50;45.90
65826;DHT22;52586;-43.152;172.732;2023-11-21T01:14:43;22.50;45.90
65826;DHT22;52586;-43.152;172.732;2023-11-21T01:17:15;22.50;45.90
65826;DHT22;52586;-43.152;172.732;2023-11-21T01:19:49;22.60;46.00
65826;DHT22;52586;-43.152;172.732;2023-11-21T01:22:44;22.60;45.90
65826;DHT22;52586;-43.152;172.732;2023-11-21T01:25:16;22.60;45.90
65826;DHT22;52586;-43.152;172.732;2023-11-21T01:27:47;22.60;45.90
65826;DHT22;52586;-43.152;172.732;2023-11-21T01:30:16;22.60;46.00
65826;DHT22;52586;-43.152;172.732;2023-11-21T01:32:49;22.60;46.00
65826;DHT22;52586;-43.152;172.732;2023-11-21T01:35:20;22.60;46.00
65826;DHT22;52586;-43.152;172.732;2023-11-21T01:37:50;22.60;46.00
65826;DHT22;52586;-43.152;172.732;2023-11-21T01:40:21;22.70;46.00
65826;DHT22;52586;-43.152;172.732;2023-11-21T01:42:52;22.70;46.00
65826;DHT22;52586;-43.152;172.732;2023-11-21T01:45:23;22.70;46.00
65826;DHT22;52586;-43.152;172.732;2023-11-21T01:47:56;22.70;46.00
65826;DHT22;52586;-43.152;172.732;2023-11-21T01:50:28;22.70;46.00
65826;DHT22;52586;-43.152;172.732;2023-11-21T01:52:59;22.80;46.10
65826;DHT22;52586;-43.152;172.732;2023-11-21T01:55:31;22.80;46.10
65826;DHT22;52586;-43.152;172.732;2023-11-21T01:58:02;22.80;46.10
65826;DHT22;52586;-43.152;172.732;2023-11-21T02:00:32;22.80;46.10
65826;DHT22;52586;-43.152;172.732;2023-11-21T02:03:06;22.80;46.10
65826;DHT22;52586;-43.152;172.732;2023-11-21T02:05:38;22.80;46.10
65826;DHT22;52586;-43.152;172.732;2023-11-21T02:08:08;22.90;46.10
65826;DHT22;52586;-43.152;172.732;2023-11-21T02:10:39;22.90;46.10
65826;DHT22;52586;-43.152;172.732;2023-11-21T02:13:10;22.90;46.10
65826;DHT22;52586;-43.152;172.732;2023-11-21T02:15:39;22.90;46.10
65826;DHT22;52586;-43.152;172.732;2023-11-21T02:18:11;22.90;46.10
65826;DHT22;52586;-43.152;172.732;2023-11-21T02:20:43;22.90;46.10
65826;DHT22;52586;-43.152;172.732;2023-11-21T02:23:16;23.00;46.10
65826;DHT22;52586;-43.152;172.732;2023-11-21T02:25:46;23.00;46.70
65826;DHT22;52586;-43.152;172.732;2023-11-21T02:28:17;23.00;46.10
65826;DHT22;52586;-43.152;172.732;2023-11-21T02:30:53;23.00;46.10
65826;DHT22;52586;-43.152;172.732;2023-11-21T02:33:26;23.00;46.10
65826;DHT22;52586;-43.152;172.732;2023-11-21T02:35:57;23.10;46.20
65826;DHT22;52586;-43.152;172.732;2023-11-21T02:38:29;23.10;46.20
65826;DHT22;52586;-43.152;172.732;2023-11-21T02:41:00;23.10;46.20
65826;DHT22;52586;-43.152;172.732;2023-11-21T02:43:32;23.10;46.20
65826;DHT22;52586;-43.152;172.732;2023-11-21T02:46:02;23.10;46.20
65826;DHT22;52586;-43.152;172.732;2023-11-21T02:48:33;23.10;46.20
65826;DHT22;52586;-43.152;172.732;2023-11-21T02:51:04;23.10;46.20
65826;DHT22;52586;-43.152;172.732;2023-11-21T02:53:36;23.10;46.80
65826;DHT22;52586;-43.152;172.732;2023-11-21T02:56:08;23.20;46.30
65826;DHT22;52586;-43.152;172.732;2023-11-21T02:58:40;23.20;46.30
65826;DHT22;52586;-43.152;172.732;2023-11-21T03:01:11;23.20;46.30
65826;DHT22;52586;-43.152;172.732;2023-11-21T03:03:42;23.20;46.30
65826;DHT22;52586;-43.152;172.732;2023-11-21T03:06:13;23.20;46.40
65826;DHT22;52586;-43.152;172.732;2023-11-21T03:08:45;23.30;46.40
65826;DHT22;52586;-43.152;172.732;2023-11-21T03:11:16;23.30;46.40
65826;DHT22;52586;-43.152;172.732;2023-11-21T03:13:47;23.30;46.50
65826;DHT22;52586;-43.152;172.732;2023-11-21T03:16:18;23.30;46.50
65826;DHT22;52586;-43.152;172.732;2023-11-21T03:18:49;23.30;46.40
65826;DHT22;52586;-43.152;172.732;2023-11-21T03:21:20;23.40;46.40
65826;DHT22;52586;-43.152;172.732;2023-11-21T03:23:52;23.40;46.40
65826;DHT22;52586;-43.152;172.732;2023-11-21T03:26:23;23.40;46.50
65826;DHT22;52586;-43.152;172.732;2023-11-21T03:28:54;23.40;46.50
65826;DHT22;52586;-43.152;172.732;2023-11-21T03:31:24;23.40;46.40
65826;DHT22;52586;-43.152;172.732;2023-11-21T03:33:56;23.40;46.50
65826;DHT22;52586;-43.152;172.732;2023-11-21T03:36:26;23.40;46.50
65826;DHT22;52586;-43.152;172.732;2023-11-21T03:38:59;23.50;46.50
65826;DHT22;52586;-43.152;172.732;2023-11-21T03:41:29;23.50;46.50
65826;DHT22;52586;-43.152;172.732;2023-11-21T03:44:01;23.50;46.60
65826;DHT22;52586;-43.152;172.732;2023-11-21T03:46:32;23.50;46.60
65826;DHT22;52586;-43.152;172.732;2023-11-21T03:49:02;23.50;46.60
65826;DHT22;52586;-43.152;172.732;2023-11-21T03:51:34;23.60;46.60
65826;DHT22;52586;-43.152;172.732;2023-11-21T03:54:07;23.60;46.60
65826;DHT22;52586;-43.152;172.732;2023-11-21T03:56:37;23.60;46.60
65826;DHT22;52586;-43.152;172.732;2023-11-21T03:59:08;23.70;46.70
65826;DHT22;52586;-43.152;172.732;2023-11-21T04:01:39;23.70;46.70
65826;DHT22;52586;-43.152;172.732;2023-11-21T04:04:10;23.70;46.70
65826;DHT22;52586;-43.152;172.732;2023-11-21T04:06:40;23.70;46.60
65826;DHT22;52586;-43.152;172.732;2023-11-21T04:09:13;23.70;46.60
65826;DHT22;52586;-43.152;172.732;2023-11-21T04:11:44;23.70;46.60
65826;DHT22;52586;-43.152;172.732;2023-11-21T04:14:15;23.80;46.60
65826;DHT22;52586;-43.152;172.732;2023-11-21T04:16:46;23.80;46.60
65826;DHT22;52586;-43.152;172.732;2023-11-21T04:19:17;23.80;46.50
65826;DHT22;52586;-43.152;172.732;2023-11-21T04:21:48;23.80;46.50
65826;DHT22;52586;-43.152;172.732;2023-11-21T04:24:20;23.80;46.50
65826;DHT22;52586;-43.152;172.732;2023-11-21T04:26:51;23.80;46.50
65826;DHT22;52586;-43.152;172.732;2023-11-21T04:29:22;23.90;46.50
65826;DHT22;52586;-43.152;172.732;2023-11-21T04:31:52;23.80;46.50
65826;DHT22;52586;-43.152;172.732;2023-11-21T04:34:23;23.90;46.50
65826;DHT22;52586;-43.152;172.732;2023-11-21T04:36:54;23.90;46.50
65826;DHT22;52586;-43.152;172.732;2023-11-21T04:39:26;23.90;46.50
65826;DHT22;52586;-43.152;172.732;2023-11-21T04:41:57;23.90;46.50
65826;DHT22;52586;-43.152;172.732;2023-11-21T04:44:27;24.00;46.50
65826;DHT22;52586;-43.152;172.732;2023-11-21T04:46:58;24.00;46.50
65826;DHT22;52586;-43.152;172.732;2023-11-21T04:49:32;24.00;46.50
65826;DHT22;52586;-43.152;172.732;2023-11-21T04:52:03;24.00;46.50
65826;DHT22;52586;-43.152;172.732;2023-11-21T04:54:36;24.00;46.50
65826;DHT22;52586;-43.152;172.732;2023-11-21T04:57:07;24.00;46.50
65826;DHT22;52586;-43.152;172.732;2023-11-21T04:59:38;24.00;46.50
65826;DHT22;52586;-43.152;172.732;2023-11-21T05:02:08;24.00;46.60
65826;DHT22;52586;-43.152;172.732;2023-11-21T05:04:40;24.00;46.60
65826;DHT22;52586;-43.152;172.732;2023-11-21T05:07:10;24.00;46.60
65826;DHT22;52586;-43.152;172.732;2023-11-21T05:09:44;24.00;46.60
65826;DHT22;52586;-43.152;172.732;2023-11-21T05:12:15;24.00;46.60
65826;DHT22;52586;-43.152;172.732;2023-11-21T05:14:46;24.10;46.70
65826;DHT22;52586;-43.152;172.732;2023-11-21T05:17:16;24.10;46.70
65826;DHT22;52586;-43.152;172.732;2023-11-21T05:19:47;24.10;46.70
65826;DHT22;52586;-43.152;172.732;2023-11-21T05:22:18;24.10;46.70
65826;DHT22;52586;-43.152;172.732;2023-11-21T05:24:50;24.10;46.60
65826;DHT22;52586;-43.152;172.732;2023-11-21T05:27:21;24.10;46.60
65826;DHT22;52586;-43.152;172.732;2023-11-21T05:29:52;24.10;46.70
65826;DHT22;52586;-43.152;172.732;2023-11-21T05:32:23;24.10;46.70
65826;DHT22;52586;-43.152;172.732;2023-11-21T05:34:53;24.10;46.60
65826;DHT22;52586;-43.152;172.732;2023-11-21T05:37:24;24.10;46.70
65826;DHT22;52586;-43.152;172.732;2023-11-21T05:39:57;24.10;46.70
65826;DHT22;52586;-43.152;172.732;2023-11-21T05:42:32;24.10;46.70
65826;DHT22;52586;-43.152;172.732;2023-11-21T05:45:03;24.10;46.80
65826;DHT22;52586;-43.152;172.732;2023-11-21T05:47:39;24.10;46.80
65826;DHT22;52586;-43.152;172.732;2023-11-21T05:50:11;24.10;46.80
65826;DHT22;52586;-43.152;172.732;2023-11-21T05:52:43;24.10;46.80
65826;DHT22;52586;-43.152;172.732;2023-11-21T05:55:16;24.10;46.80
65826;DHT22;52586;-43.152;172.732;2023-11-21T05:57:48;24.10;46.90
65826;DHT22;52586;-43.152;172.732;2023-11-21T06:00:19;24.10;46.90
65826;DHT22;52586;-43.152;172.732;2023-11-21T06:02:50;24.10;46.80
65826;DHT22;52586;-43.152;172.732;2023-11-21T06:05:22;24.10;46.90
65826;DHT22;52586;-43.152;172.732;2023-11-21T06:07:53;24.10;46.90
65826;DHT22;52586;-43.152;172.732;2023-11-21T06:10:28;24.10;46.90
65826;DHT22;52586;-43.152;172.732;2023-11-21T06:12:59;24.10;46.90
65826;DHT22;52586;-43.152;172.732;2023-11-21T06:15:31;24.10;46.90
65826;DHT22;52586;-43.152;172.732;2023-11-21T06:18:02;24.10;46.90
65826;DHT22;52586;-43.152;172.732;2023-11-21T06:20:37;24.10;46.90
65826;DHT22;52586;-43.152;172.732;2023-11-21T06:23:08;24.20;46.90
65826;DHT22;52586;-43.152;172.732;2023-11-21T06:25:40;24.10;46.80
65826;DHT22;52586;-43.152;172.732;2023-11-21T06:28:11;24.10;46.80
65826;DHT22;52586;-43.152;172.732;2023-11-21T06:30:45;24.10;46.80
65826;DHT22;52586;-43.152;172.732;2023-11-21T06:33:16;24.20;47.50
65826;DHT22;52586;-43.152;172.732;2023-11-21T06:35:47;24.20;46.90
65826;DHT22;52586;-43.152;172.732;2023-11-21T06:38:18;24.20;46.90
65826;DHT22;52586;-43.152;172.732;2023-11-21T06:40:51;24.20;46.90
65826;DHT22;52586;-43.152;172.732;2023-11-21T06:43:22;24.20;46.90
65826;DHT22;52586;-43.152;172.732;2023-11-21T06:45:53;24.20;46.90
65826;DHT22;52586;-43.152;172.732;2023-11-21T06:48:23;24.20;46.90
65826;DHT22;52586;-43.152;172.732;2023-11-21T06:50:54;24.20;46.80
65826;DHT22;52586;-43.152;172.732;2023-11-21T06:53:25;24.20;46.90
65826;DHT22;52586;-43.152;172.732;2023-11-21T06:56:00;24.20;46.90
65826;DHT22;52586;-43.152;172.732;2023-11-21T06:58:32;24.10;46.80
65826;DHT22;52586;-43.152;172.732;2023-11-21T07:01:02;24.20;46.80
65826;DHT22;52586;-43.152;172.732;2023-11-21T07:03:33;24.20;46.80
65826;DHT22;52586;-43.152;172.732;2023-11-21T07:06:05;24.20;46.80
65826;DHT22;52586;-43.152;172.732;2023-11-21T07:08:36;24.20;46.80
65826;DHT22;52586;-43.152;172.732;2023-11-21T07:11:08;24.20;46.80
65826;DHT22;52586;-43.152;172.732;2023-11-21T07:13:39;24.10;46.70
65826;DHT22;52586;-43.152;172.732;2023-11-21T07:16:10;24.10;46.70
65826;DHT22;52586;-43.152;172.732;2023-11-21T07:18:41;24.10;46.70
65826;DHT22;52586;-43.152;172.732;2023-11-21T07:21:11;24.10;46.70
65826;DHT22;52586;-43.152;172.732;2023-11-21T07:23:43;24.10;46.70
65826;DHT22;52586;-43.152;172.732;2023-11-21T07:26:16;24.10;46.60
65826;DHT22;52586;-43.152;172.732;2023-11-21T07:28:46;24.10;46.60
65826;DHT22;52586;-43.152;172.732;2023-11-21T07:31:17;24.10;46.60
65826;DHT22;52586;-43.152;172.732;2023-11-21T07:33:49;24.10;46.60
65826;DHT22;52586;-43.152;172.732;2023-11-21T07:36:20;24.00;46.60
65826;DHT22;52586;-43.152;172.732;2023-11-21T07:38:51;24.00;46.60
65826;DHT22;52586;-43.152;172.732;2023-11-21T07:41:24;24.00;46.60
65826;DHT22;52586;-43.152;172.732;2023-11-21T07:43:54;24.00;46.70
65826;DHT22;52586;-43.152;172.732;2023-11-21T07:46:26;24.00;46.60
65826;DHT22;52586;-43.152;172.732;2023-11-21T07:48:56;23.90;46.60
65826;DHT22;52586;-43.152;172.732;2023-11-21T07:51:27;23.90;46.60
65826;DHT22;52586;-43.152;172.732;2023-11-21T07:53:58;23.90;46.60
65826;DHT22;52586;-43.152;172.732;2023-11-21T07:56:30;23.90;46.60
65826;DHT22;52586;-43.152;172.732;2023-11-21T07:59:01;23.80;46.60
65826;DHT22;52586;-43.152;172.732;2023-11-21T08:01:32;23.80;46.60
65826;DHT22;52586;-43.152;172.732;2023-11-21T08:04:02;23.90;46.60
65826;DHT22;52586;-43.152;172.732;2023-11-21T08:06:34;23.80;46.60
65826;DHT22;52586;-43.152;172.732;2023-11-21T08:09:05;23.80;46.60
65826;DHT22;52586;-43.152;172.732;2023-11-21T08:11:37;23.80;46.60
65826;DHT22;52586;-43.152;172.732;2023-11-21T08:14:08;23.80;46.60
65826;DHT22;52586;-43.152;172.732;2023-11-21T08:16:39;23.80;46.50
65826;DHT22;52586;-43.152;172.732;2023-11-21T08:19:10;23.70;46.50
65826;DHT22;52586;-43.152;172.732;2023-11-21T08:21:40;23.70;46.50
65826;DHT22;52586;-43.152;172.732;2023-11-21T08:24:11;23.70;46.50
65826;DHT22;52586;-43.152;172.732;2023-11-21T08:26:43;23.70;46.50
65826;DHT22;52586;-43.152;172.732;2023-11-21T08:29:14;23.70;46.60
65826;DHT22;52586;-43.152;172.732;2023-11-21T08:31:44;23.70;46.60
65826;DHT22;52586;-43.152;172.732;2023-11-21T08:34:16;23.60;46.60
65826;DHT22;52586;-43.152;172.732;2023-11-21T08:36:46;23.60;46.60
65826;DHT22;52586;-43.152;172.732;2023-11-21T08:39:18;23.60;46.60
65826;DHT22;52586;-43.152;172.732;2023-11-21T08:41:53;23.60;46.60
65826;DHT22;52586;-43.152;172.732;2023-11-21T08:44:24;23.50;46.60
65826;DHT22;52586;-43.152;172.732;2023-11-21T08:46:55;23.50;46.60
65826;DHT22;52586;-43.152;172.732;2023-11-21T08:49:25;23.50;46.60
65826;DHT22;52586;-43.152;172.732;2023-11-21T08:51:57;23.50;46.60
65826;DHT22;52586;-43.152;172.732;2023-11-21T08:54:28;23.50;46.60
65826;DHT22;52586;-43.152;172.732;2023-11-21T08:57:01;23.40;46.50
65826;DHT22;52586;-43.152;172.732;2023-11-21T08:59:31;23.40;46.50
65826;DHT22;52586;-43.152;172.732;2023-11-21T09:02:02;23.40;46.50
65826;DHT22;52586;-43.152;172.732;2023-11-21T09:04:33;23.40;46.50
65826;DHT22;52586;-43.152;172.732;2023-11-21T09:07:05;23.40;46.50
65826;DHT22;52586;-43.152;172.732;2023-11-21T09:09:36;23.40;46.40
65826;DHT22;52586;-43.152;172.732;2023-11-21T09:12:09;23.40;46.50
65826;DHT22;52586;-43.152;172.732;2023-11-21T09:14:40;23.30;46.40
65826;DHT22;52586;-43.152;172.732;2023-11-21T09:17:11;23.30;46.40
65826;DHT22;52586;-43.152;172.732;2023-11-21T09:19:42;23.30;46.40
65826;DHT22;52586;-43.152;172.732;2023-11-21T09:22:14;23.20;46.30
65826;DHT22;52586;-43.152;172.732;2023-11-21T09:24:45;23.20;46.40
65826;DHT22;52586;-43.152;172.732;2023-11-21T09:27:18;23.20;46.30
65826;DHT22;52586;-43.152;172.732;2023-11-21T09:29:49;23.20;46.40
65826;DHT22;52586;-43.152;172.732;2023-11-21T09:32:20;23.20;46.40
65826;DHT22;52586;-43.152;172.732;2023-11-21T09:34:51;23.10;46.90
65826;DHT22;52586;-43.152;172.732;2023-11-21T09:37:23;23.10;46.30
65826;DHT22;52586;-43.152;172.732;2023-11-21T09:39:54;23.10;46.40
65826;DHT22;52586;-43.152;172.732;2023-11-21T09:42:34;23.10;46.30
65826;DHT22;52586;-43.152;172.732;2023-11-21T09:45:12;23.00;46.20
65826;DHT22;52586;-43.152;172.732;2023-11-21T09:47:46;23.00;46.20
65826;DHT22;52586;-43.152;172.732;2023-11-21T09:50:18;23.00;46.20
65826;DHT22;52586;-43.152;172.732;2023-11-21T09:52:57;23.00;46.20
65826;DHT22;52586;-43.152;172.732;2023-11-21T09:55:28;23.00;46.20
65826;DHT22;52586;-43.152;172.732;2023-11-21T09:58:05;22.90;46.20
65826;DHT22;52586;-43.152;172.732;2023-11-21T10:00:41;22.90;46.20
65826;DHT22;52586;-43.152;172.732;2023-11-21T10:03:12;22.90;46.20
65826;DHT22;52586;-43.152;172.732;2023-11-21T10:05:44;22.80;46.20
65826;DHT22;52586;-43.152;172.732;2023-11-21T10:08:15;22.80;46.20
65826;DHT22;52586;-43.152;172.732;2023-11-21T10:10:46;22.80;46.20
65826;DHT22;52586;-43.152;172.732;2023-11-21T10:13:21;22.80;46.20
65826;DHT22;52586;-43.152;172.732;2023-11-21T10:15:53;22.70;46.10
65826;DHT22;52586;-43.152;172.732;2023-11-21T10:18:24;22.70;46.10
65826;DHT22;52586;-43.152;172.732;2023-11-21T10:20:55;22.70;46.10
65826;DHT22;52586;-43.152;172.732;2023-11-21T10:23:26;22.70;46.10
65826;DHT22;52586;-43.152;172.732;2023-11-21T10:25:57;22.60;46.10
65826;DHT22;52586;-43.152;172.732;2023-11-21T10:28:30;22.60;46.10
65826;DHT22;52586;-43.152;172.732;2023-11-21T10:31:08;22.60;46.10
65826;DHT22;52586;-43.152;172.732;2023-11-21T10:33:39;22.60;46.10
65826;DHT22;52586;-43.152;172.732;2023-11-21T10:36:10;22.60;46.10
65826;DHT22;52586;-43.152;172.732;2023-11-21T10:38:44;22.50;46.10
65826;DHT22;52586;-43.152;172.732;2023-11-21T10:41:19;22.50;46.10
65826;DHT22;52586;-43.152;172.732;2023-11-21T10:43:54;22.50;46.10
65826;DHT22;52586;-43.152;172.732;2023-11-21T10:46:25;22.50;46.10
65826;DHT22;52586;-43.152;172.732;2023-11-21T10:48:58;22.40;46.10
65826;DHT22;52586;-43.152;172.732;2023-11-21T10:51:29;22.40;46.10
65826;DHT22;52586;-43.152;172.732;2023-11-21T10:54:00;22.40;46.10
65826;DHT22;52586;-43.152;172.732;2023-11-21T10:56:31;22.40;46.10
65826;DHT22;52586;-43.152;172.732;2023-11-21T10:59:05;22.40;46.10
65826;DHT22;52586;-43.152;172.732;2023-11-21T11:01:36;22.30;46.10
65826;DHT22;52586;-43.152;172.732;2023-11-21T11:04:07;22.30;46.10
65826;DHT22;52586;-43.152;172.732;2023-11-21T11:06:43;22.30;46.10
65826;DHT22;52586;-43.152;172.732;2023-11-21T11:09:14;22.30;46.10
65826;DHT22;52586;-43.152;172.732;2023-11-21T11:11:45;22.20;46.10
65826;DHT22;52586;-43.152;172.732;2023-11-21T11:14:18;22.20;46.10
65826;DHT22;52586;-43.152;172.732;2023-11-21T11:16:55;22.20;46.10
65826;DHT22;52586;-43.152;172.732;2023-11-21T11:19:27;22.20;46.10
65826;DHT22;52586;-43.152;172.732;2023-11-21T11:22:05;22.20;46.10
65826;DHT22;52586;-43.152;172.732;2023-11-21T11:24:56;22.10;46.00
65826;DHT22;52586;-43.152;172.732;2023-11-21T11:27:37;22.10;46.10
65826;DHT22;52586;-43.152;172.732;2023-11-21T11:30:20;22.10;46.00
65826;DHT22;52586;-43.152;172.732;2023-11-21T11:33:04;22.10;46.00
65826;DHT22;52586;-43.152;172.732;2023-11-21T11:35:45;22.00;46.00
65826;DHT22;52586;-43.152;172.732;2023-11-21T11:38:21;22.00;46.00
65826;DHT22;52586;-43.152;172.732;2023-11-21T11:40:54;22.00;46.00
65826;DHT22;52586;-43.152;172.732;2023-11-21T11:43:28;22.00;46.00
65826;DHT22;52586;-43.152;172.732;2023-11-21T11:46:04;21.90;46.00
65826;DHT22;52586;-43.152;172.732;2023-11-21T11:48:39;21.90;46.00
65826;DHT22;52586;-43.152;172.732;2023-11-21T11:51:12;21.90;46.00
65826;DHT22;52586;-43.152;172.732;2023-11-21T11:53:45;21.90;46.10
65826;DHT22;52586;-43.152;172.732;2023-11-21T11:56:29;21.90;46.10
65826;DHT22;52586;-43.152;172.732;2023-11-21T11:59:03;21.80;46.00
65826;DHT22;52586;-43.152;172.732;2023-11-21T12:01:38;21.80;46.00
65826;DHT22;52586;-43.152;172.732;2023-11-21T12:04:28;21.80;46.00
65826;DHT22;52586;-43.152;172.732;2023-11-21T12:07:02;21.80;46.00
65826;DHT22;52586;-43.152;172.732;2023-11-21T12:09:33;21.70;45.90
65826;DHT22;52586;-43.152;172.732;2023-11-21T12:12:04;21.70;46.00
65826;DHT22;52586;-43.152;172.732;2023-11-21T12:14:37;21.70;46.00
65826;DHT22;52586;-43.152;172.732;2023-11-21T12:17:09;21.70;46.10
65826;DHT22;52586;-43.152;172.732;2023-11-21T12:19:40;21.70;46.10
65826;DHT22;52586;-43.152;172.732;2023-11-21T12:22:12;21.70;46.10
65826;DHT22;52586;-43.152;172.732;2023-11-21T12:24:42;21.60;46.00
65826;DHT22;52586;-43.152;172.732;2023-11-21T12:27:13;21.60;46.00
65826;DHT22;52586;-43.152;172.732;2023-11-21T12:29:43;21.60;46.10
65826;DHT22;52586;-43.152;172.732;2023-11-21T12:32:16;21.60;46.10
65826;DHT22;52586;-43.152;172.732;2023-11-21T12:34:48;21.60;46.10
65826;DHT22;52586;-43.152;172.732;2023-11-21T12:37:19;21.60;46.10
65826;DHT22;52586;-43.152;172.732;2023-11-21T12:39:50;21.50;46.10
65826;DHT22;52586;-43.152;172.732;2023-11-21T12:42:22;21.50;46.10
65826;DHT22;52586;-43.152;172.732;2023-11-21T12:47:56;21.50;46.10
65826;DHT22;52586;-43.152;172.732;2023-11-21T12:50:28;21.50;46.10
65826;DHT22;52586;-43.152;172.732;2023-11-21T12:53:02;21.40;46.00
65826;DHT22;52586;-43.152;172.732;2023-11-21T12:55:34;21.40;46.10
65826;DHT22;52586;-43.152;172.732;2023-11-21T12:58:05;21.40;46.70
65826;DHT22;52586;-43.152;172.732;2023-11-21T13:00:39;21.40;46.10
65826;DHT22;52586;-43.152;172.732;2023-11-21T13:03:12;21.40;46.10
65826;DHT22;52586;-43.152;172.732;2023-11-21T13:05:46;21.40;46.80
65826;DHT22;52586;-43.152;172.732;2023-11-21T13:08:18;21.30;46.00
65826;DHT22;52586;-43.152;172.732;2023-11-21T13:10:52;21.30;46.10
65826;DHT22;52586;-43.152;172.732;2023-11-21T13:13:24;21.30;46.10
65826;DHT22;52586;-43.152;172.732;2023-11-21T13:15:56;21.20;46.10
65826;DHT22;52586;-43.152;172.732;2023-11-21T13:18:30;21.30;46.10
65826;DHT22;52586;-43.152;172.732;2023-11-21T13:21:01;21.20;46.10
65826;DHT22;52586;-43.152;172.732;2023-11-21T13:23:37;21.20;46.10
65826;DHT22;52586;-43.152;172.732;2023-11-21T13:26:09;21.20;46.10
65826;DHT22;52586;-43.152;172.732;2023-11-21T13:28:40;21.20;46.10
65826;DHT22;52586;-43.152;172.732;2023-11-21T13:31:14;21.20;46.10
65826;DHT22;52586;-43.152;172.732;2023-11-21T13:33:56;21.20;46.10
65826;DHT22;52586;-43.152;172.732;2023-11-21T13:36:32;21.20;46.10
65826;DHT22;52586;-43.152;172.732;2023-11-21T13:39:03;21.10;46.10
65826;DHT22;52586;-43.152;172.732;2023-11-21T13:41:35;21.10;46.10
65826;DHT22;52586;-43.152;172.732;2023-11-21T13:44:06;21.10;46.10
65826;DHT22;52586;-43.152;172.732;2023-11-21T13:46:44;21.10;46.10
65826;DHT22;52586;-43.152;172.732;2023-11-21T13:49:16;21.10;46.10
65826;DHT22;52586;-43.152;172.732;2023-11-21T13:51:49;21.00;46.10
65826;DHT22;52586;-43.152;172.732;2023-11-21T13:54:22;21.00;46.10
65826;DHT22;52586;-43.152;172.732;2023-11-21T13:56:53;21.00;46.10
65826;DHT22;52586;-43.152;172.732;2023-11-21T13:59:24;21.00;46.10
65826;DHT22;52586;-43.152;172.732;2023-11-21T14:01:58;21.00;46.10
65826;DHT22;52586;-43.152;172.732;2023-11-21T14:04:46;21.00;46.10
65826;DHT22;52586;-43.152;172.732;2023-11-21T14:07:26;20.90;46.10
65826;DHT22;52586;-43.152;172.732;2023-11-21T14:10:03;20.90;46.10
65826;DHT22;52586;-43.152;172.732;2023-11-21T14:12:35;20.90;46.10
65826;DHT22;52586;-43.152;172.732;2023-11-21T14:15:09;20.90;46.10
65826;DHT22;52586;-43.152;172.732;2023-11-21T14:17:46;20.90;46.20
65826;DHT22;52586;-43.152;172.732;2023-11-21T14:20:19;20.90;46.10
65826;DHT22;52586;-43.152;172.732;2023-11-21T14:22:50;20.90;46.20
65826;DHT22;52586;-43.152;172.732;2023-11-21T14:25:20;20.80;46.20
65826;DHT22;52586;-43.152;172.732;2023-11-21T14:27:51;20.80;46.10
65826;DHT22;52586;-43.152;172.732;2023-11-21T14:30:22;20.80;46.20
65826;DHT22;52586;-43.152;172.732;2023-11-21T14:32:52;20.80;46.20
65826;DHT22;52586;-43.152;172.732;2023-11-21T14:35:25;20.80;46.20
65826;DHT22;52586;-43.152;172.732;2023-11-21T14:37:58;20.80;46.20
65826;DHT22;52586;-43.152;172.732;2023-11-21T14:40:30;20.80;46.20
65826;DHT22;52586;-43.152;172.732;2023-11-21T14:43:01;20.80;46.20
65826;DHT22;52586;-43.152;172.732;2023-11-21T14:45:33;20.80;46.20
65826;DHT22;52586;-43.152;172.732;2023-11-21T14:48:03;20.70;46.20
65826;DHT22;52586;-43.152;172.732;2023-11-21T14:50:45;20.70;46.20
65826;DHT22;52586;-43.152;172.732;2023-11-21T14:53:40;20.70;46.20
65826;DHT22;52586;-43.152;172.732;2023-11-21T14:56:22;20.70;46.30
65826;DHT22;52586;-43.152;172.732;2023-11-21T14:58:59;20.70;46.20
65826;DHT22;52586;-43.152;172.732;2023-11-21T15:01:32;20.70;46.30
65826;DHT22;52586;-43.152;172.732;2023-11-21T15:04:22;20.60;46.20
65826;DHT22;52586;-43.152;172.732;2023-11-21T15:07:05;20.60;46.20
65826;DHT22;52586;-43.152;172.732;2023-11-21T15:09:36;20.60;46.30
65826;DHT22;52586;-43.152;172.732;2023-11-21T15:12:09;20.60;46.20
65826;DHT22;52586;-43.152;172.732;2023-11-21T15:14:44;20.60;46.30
65826;DHT22;52586;-43.152;172.732;2023-11-21T15:17:17;20.60;46.30
65826;DHT22;52586;-43.152;172.732;2023-11-21T15:19:52;20.50;46.30
65826;DHT22;52586;-43.152;172.732;2023-11-21T15:22:26;20.50;46.30